createdAt,value
2022-08-14T00:19:06.426Z,21.20
2022-08-14T04:32:59.246Z,17.70
2022-08-14T04:46:56.761Z,17.50
2022-08-14T04:50:54.121Z,17.40
2022-08-14T04:59:19.932Z,17.40
2022-08-14T05:03:33.412Z,17.40
2022-08-14T05:12:23.891Z,17.70
2022-08-14T05:16:22.029Z,17.80
2022-08-14T05:21:04.834Z,17.90
2022-08-14T05:24:51.127Z,18.00
2022-08-14T05:28:54.857Z,18.00
2022-08-14T05:32:57.753Z,18.10
2022-08-14T05:37:03.467Z,18.20
2022-08-14T05:41:17.380Z,18.40
2022-08-14T05:45:21.995Z,18.50
2022-08-14T05:49:33.134Z,18.70
2022-08-14T05:53:42.144Z,18.90
2022-08-14T05:58:01.320Z,19.10
2022-08-14T06:02:06.434Z,19.30
2022-08-14T06:06:09.462Z,19.60
2022-08-14T06:10:27.999Z,19.90
2022-08-14T06:14:32.733Z,20.00
2022-08-14T06:18:37.517Z,20.00
2022-08-14T06:27:10.106Z,20.20
2022-08-14T06:44:12.576Z,21.00
2022-08-14T06:48:24.261Z,21.30
2022-08-14T09:36:45.410Z,29.50
2022-08-14T12:07:55.307Z,32.00
2022-08-14T12:38:05.697Z,32.50
2022-08-14T12:42:11.717Z,32.70
2022-08-14T12:46:38.014Z,33.00
2022-08-14T12:50:43.605Z,33.40
2022-08-14T12:55:10.687Z,33.40
2022-08-14T12:59:14.761Z,33.50
2022-08-14T13:03:26.895Z,33.50
2022-08-14T13:07:32.627Z,33.50
2022-08-14T13:11:45.490Z,33.50
2022-08-14T13:15:57.384Z,33.80
2022-08-14T13:20:01.026Z,33.80
2022-08-14T13:24:04.810Z,33.50
2022-08-14T13:28:11.657Z,33.30
2022-08-14T13:32:34.206Z,33.20
2022-08-14T13:36:54.953Z,33.40
2022-08-14T13:41:00.012Z,33.60
2022-08-14T13:45:06.487Z,33.60
2022-08-14T13:49:11.478Z,33.50
2022-08-14T13:53:16.503Z,33.40
2022-08-14T13:57:20.399Z,33.40
2022-08-14T14:01:43.631Z,33.30
2022-08-14T14:05:52.635Z,33.40
2022-08-14T14:10:06.467Z,33.60
2022-08-14T14:14:44.851Z,33.80
2022-08-14T14:18:35.792Z,33.70
2022-08-14T14:23:02.713Z,33.50
2022-08-14T14:27:30.039Z,33.60
2022-08-14T14:31:31.108Z,33.70
2022-08-14T14:35:38.603Z,33.50
2022-08-14T14:40:54.069Z,33.60
2022-08-14T14:44:15.782Z,33.80
2022-08-14T14:48:19.639Z,34.00
2022-08-14T14:52:27.840Z,34.40
2022-08-14T14:56:48.178Z,34.60
2022-08-14T15:01:01.597Z,34.70
2022-08-14T15:05:08.256Z,34.70
2022-08-14T15:09:11.254Z,34.70
2022-08-14T15:13:21.201Z,34.60
2022-08-14T15:17:25.079Z,34.70
2022-08-14T15:21:32.295Z,34.40
2022-08-14T15:25:36.638Z,34.30
2022-08-14T15:29:43.063Z,34.50
2022-08-14T15:34:44.996Z,34.50
2022-08-14T15:38:29.293Z,34.60
2022-08-14T15:42:37.368Z,34.80
2022-08-14T15:46:45.434Z,35.00
2022-08-14T15:50:49.188Z,34.90
2022-08-14T15:54:54.046Z,34.80
2022-08-14T15:58:57.047Z,34.80
2022-08-14T16:03:00.487Z,34.90
2022-08-14T16:07:03.573Z,35.00
2022-08-14T16:11:12.457Z,35.40
2022-08-14T16:15:17.190Z,36.00
2022-08-14T16:19:21.336Z,36.50
2022-08-14T16:23:27.863Z,36.90
2022-08-14T16:27:41.563Z,37.50
2022-08-14T16:31:46.246Z,37.90
2022-08-14T16:35:55.756Z,38.50
2022-08-14T16:40:04.158Z,38.20
2022-08-14T16:44:22.109Z,37.70
2022-08-14T16:48:58.050Z,37.10
2022-08-14T16:53:00.895Z,37.40
2022-08-14T16:57:22.689Z,37.20
2022-08-14T17:01:30.081Z,37.20
2022-08-14T17:05:38.133Z,36.70
2022-08-14T17:09:49.185Z,36.00
2022-08-14T17:14:01.295Z,35.30
2022-08-14T17:18:15.046Z,34.90
2022-08-14T17:22:47.611Z,34.50
2022-08-14T17:26:55.170Z,34.10
2022-08-14T17:31:03.967Z,33.80
2022-08-14T17:35:10.032Z,33.50
2022-08-14T17:39:16.168Z,33.30
2022-08-14T17:43:41.312Z,33.20
2022-08-14T17:47:45.702Z,33.50
2022-08-14T17:52:36.432Z,33.10
2022-08-14T17:56:46.817Z,32.50
2022-08-14T18:00:55.549Z,32.00
2022-08-14T18:05:00.187Z,31.70
2022-08-14T18:09:10.594Z,31.40
2022-08-14T18:13:51.480Z,31.00
2022-08-14T18:17:54.504Z,30.70
2022-08-14T18:22:03.976Z,30.20
2022-08-14T18:26:08.734Z,29.80
2022-08-14T18:30:40.284Z,29.50
2022-08-14T18:35:16.115Z,29.10
2022-08-14T18:39:28.754Z,28.80
2022-08-14T18:43:59.219Z,28.60
2022-08-14T18:48:23.040Z,28.40
2022-08-14T18:52:37.924Z,28.20
2022-08-14T18:57:05.773Z,28.00
2022-08-14T19:01:27.858Z,27.90
2022-08-14T19:05:47.582Z,27.70
2022-08-14T19:10:16.667Z,27.50
2022-08-14T19:14:44.108Z,27.50
2022-08-14T19:18:54.042Z,27.50
2022-08-14T19:23:17.371Z,27.30
2022-08-14T19:27:26.132Z,27.20
2022-08-14T19:31:37.117Z,27.10
2022-08-14T19:35:49.746Z,27.00
2022-08-14T19:40:10.962Z,27.00
2022-08-14T19:44:31.812Z,26.80
2022-08-14T19:48:56.990Z,26.70
2022-08-14T19:57:45.816Z,26.50
2022-08-14T20:01:57.166Z,26.30
2022-08-14T20:06:05.411Z,26.20
2022-08-14T20:11:07.902Z,26.00
2022-08-14T20:15:18.014Z,26.00
2022-08-14T20:19:41.391Z,26.00
2022-08-14T20:23:47.914Z,26.00
2022-08-14T20:27:59.528Z,25.90
2022-08-14T20:32:03.007Z,25.80
2022-08-14T20:36:15.133Z,25.60
2022-08-14T20:40:34.785Z,25.50
2022-08-14T20:45:04.316Z,25.40
2022-08-14T20:49:16.562Z,25.40
2022-08-14T20:53:36.336Z,25.40
2022-08-14T20:57:43.890Z,25.40
2022-08-14T21:01:48.621Z,25.30
2022-08-14T21:05:56.799Z,25.20
2022-08-14T21:10:35.330Z,25.10
2022-08-14T21:14:35.561Z,25.10
2022-08-14T21:18:47.240Z,25.20
2022-08-14T21:22:50.763Z,25.10
2022-08-14T21:27:00.293Z,25.10
2022-08-14T21:31:08.357Z,25.10
2022-08-14T21:35:11.750Z,25.20
2022-08-14T21:39:18.896Z,25.20
2022-08-14T21:43:25.212Z,25.10
2022-08-14T21:47:28.080Z,25.10
2022-08-14T21:51:53.502Z,25.00
2022-08-14T21:55:56.725Z,25.00
2022-08-14T22:00:30.139Z,25.10
2022-08-14T22:04:40.737Z,25.20
2022-08-14T22:08:46.268Z,25.30
2022-08-14T22:13:00.805Z,25.20
2022-08-14T22:17:12.593Z,25.10
2022-08-14T22:21:18.247Z,25.00
2022-08-14T22:25:21.393Z,25.10
2022-08-14T22:29:24.678Z,25.00
2022-08-14T22:33:30.873Z,25.00
2022-08-14T22:37:34.545Z,24.90
2022-08-14T22:41:43.703Z,24.80
2022-08-14T22:46:02.258Z,24.50
2022-08-14T22:50:32.975Z,24.40
2022-08-14T22:54:52.222Z,24.30
2022-08-14T22:58:58.075Z,24.20
2022-08-14T23:03:04.254Z,24.20
2022-08-14T23:07:21.688Z,24.20
2022-08-14T23:11:25.811Z,24.10
2022-08-14T23:15:28.753Z,24.20
2022-08-14T23:19:35.041Z,24.10
2022-08-14T23:23:41.610Z,24.00
2022-08-14T23:28:03.085Z,24.00
2022-08-14T23:32:18.641Z,23.90
2022-08-14T23:36:31.440Z,24.00
2022-08-14T23:40:40.359Z,24.00
2022-08-14T23:44:47.057Z,23.90
2022-08-14T23:48:50.908Z,23.70
2022-08-14T23:53:07.048Z,23.50
2022-08-14T23:57:10.849Z,23.30
